Wesco, Missouri
Current Conditions -  °F | °C
As of 11:53 AM on Friday 28 Nov 2014 (Local Time) from KVIH Reporting Station
Clear Clear  
Wind Chill: 50°   Ceiling: Unl
Heat Index: 50°   Visibility: 10mi
Dew Point: 31°   Wind: 22mph
Humidity: 48%   Direction: 190°S
Pressure: 30"   Gusts: 28mph
Location:  37.86°N, 91.43°W
Report Text: KVIH 281753Z AUTO 19019G24KT 10SM CLR 10/M01 A3000 RMK AO2 PK WND 19028/1701 SLP163 T01001006 10100 21006 58039
Loading
Personal Weather Stations






























Interactive Weather Map New forecast layout! Learn more

10-Day Weather Forecast

Advertisements
Track Severe Weather on mobile